createdAt,value
2023-03-30T00:01:22.446Z,13.19
2023-03-30T00:03:50.519Z,13.11
2023-03-30T00:06:22.658Z,13.04
2023-03-30T00:08:53.463Z,13.08
2023-03-30T00:11:23.259Z,13.06
2023-03-30T00:13:52.134Z,13.10
2023-03-30T00:16:22.892Z,13.02
2023-03-30T00:18:51.094Z,12.97
2023-03-30T00:21:20.701Z,13.02
2023-03-30T00:23:50.308Z,12.94
2023-03-30T00:26:18.226Z,12.92
2023-03-30T00:28:46.202Z,12.86
2023-03-30T00:31:14.056Z,12.80
2023-03-30T00:33:47.209Z,12.72
2023-03-30T00:36:16.942Z,12.73
2023-03-30T00:38:45.901Z,12.81
2023-03-30T00:41:14.922Z,12.78
2023-03-30T00:43:58.600Z,12.78
2023-03-30T00:46:26.609Z,12.79
2023-03-30T00:49:01.213Z,12.83
2023-03-30T00:51:30.448Z,12.79
2023-03-30T00:54:07.117Z,12.84
2023-03-30T00:56:35.504Z,12.78
2023-03-30T00:59:03.638Z,12.76
2023-03-30T01:01:41.943Z,12.79
2023-03-30T01:04:14.776Z,12.85
2023-03-30T01:06:47.153Z,12.87
2023-03-30T01:09:17.340Z,12.97
2023-03-30T01:11:47.223Z,13.05
2023-03-30T01:14:17.666Z,13.19
2023-03-30T01:16:55.871Z,13.29
2023-03-30T01:20:12.041Z,13.26
2023-03-30T01:23:11.059Z,13.28
2023-03-30T01:26:11.450Z,13.39
2023-03-30T01:28:50.419Z,13.53
2023-03-30T01:31:51.573Z,13.70
2023-03-30T01:34:49.812Z,13.72
2023-03-30T01:37:58.124Z,13.77
2023-03-30T01:40:36.490Z,13.80
2023-03-30T01:43:15.965Z,13.83
2023-03-30T01:45:51.818Z,13.89
2023-03-30T01:48:33.243Z,13.97
2023-03-30T01:51:08.692Z,14.15
2023-03-30T01:53:46.626Z,14.17
2023-03-30T01:56:24.973Z,14.29
2023-03-30T01:59:02.146Z,14.42
2023-03-30T02:01:34.595Z,14.46
2023-03-30T02:04:06.515Z,14.53
2023-03-30T02:06:43.212Z,14.59
2023-03-30T02:09:17.813Z,14.59
2023-03-30T02:11:51.660Z,14.53
2023-03-30T02:14:26.337Z,14.49
2023-03-30T02:17:00.954Z,14.41
2023-03-30T02:19:30.099Z,14.44
2023-03-30T02:21:58.968Z,14.40
2023-03-30T02:24:32.387Z,14.38
2023-03-30T02:27:04.373Z,14.31
2023-03-30T02:29:39.965Z,14.27
2023-03-30T02:32:17.499Z,14.27
2023-03-30T02:35:09.175Z,14.36
2023-03-30T02:38:01.516Z,14.41
2023-03-30T02:40:43.057Z,14.47
2023-03-30T02:43:34.038Z,14.49
2023-03-30T02:46:23.679Z,14.49
2023-03-30T02:49:10.418Z,14.45
2023-03-30T02:51:50.567Z,14.56
2023-03-30T02:54:38.843Z,14.52
2023-03-30T02:57:36.041Z,14.57
2023-03-30T03:00:32.640Z,14.60
2023-03-30T03:03:11.096Z,14.68
2023-03-30T03:05:42.897Z,14.75
2023-03-30T03:08:17.443Z,14.86
2023-03-30T03:10:47.462Z,14.87
2023-03-30T03:13:16.885Z,14.97
2023-03-30T03:15:49.729Z,15.00
2023-03-30T03:18:18.478Z,15.09
2023-03-30T03:20:46.797Z,15.16
2023-03-30T03:23:16.553Z,15.26
2023-03-30T03:25:55.961Z,15.33
2023-03-30T03:28:24.929Z,15.35
2023-03-30T03:30:59.846Z,15.34
2023-03-30T03:33:32.094Z,15.34
2023-03-30T03:36:10.209Z,15.39
2023-03-30T03:38:45.930Z,15.43
2023-03-30T03:41:15.962Z,15.45
2023-03-30T03:43:45.074Z,15.50
2023-03-30T03:46:16.123Z,15.52
2023-03-30T03:48:44.878Z,15.62
2023-03-30T03:51:12.764Z,15.59
2023-03-30T03:53:40.845Z,15.63
2023-03-30T03:56:14.226Z,15.65
2023-03-30T03:58:45.488Z,15.56
2023-03-30T04:01:15.252Z,15.61
2023-03-30T04:03:43.333Z,15.62
2023-03-30T04:06:12.280Z,15.65
2023-03-30T04:08:42.000Z,15.67
2023-03-30T04:11:22.281Z,15.69
2023-03-30T04:14:28.391Z,15.69
2023-03-30T04:17:18.757Z,15.64
2023-03-30T04:20:02.410Z,15.72
2023-03-30T04:22:53.438Z,15.70
2023-03-30T04:25:46.707Z,15.73
2023-03-30T04:28:40.206Z,15.78
2023-03-30T04:31:22.522Z,15.77
2023-03-30T04:34:10.358Z,15.82
2023-03-30T04:36:57.928Z,15.87
2023-03-30T04:39:36.976Z,15.81
2023-03-30T04:42:14.211Z,15.87
2023-03-30T04:45:18.444Z,15.92
2023-03-30T04:48:00.800Z,15.97
2023-03-30T04:50:52.382Z,15.84
2023-03-30T04:53:32.036Z,15.94
2023-03-30T04:56:18.368Z,15.91
2023-03-30T04:59:02.271Z,15.89
2023-03-30T05:01:45.777Z,15.87
2023-03-30T05:04:40.072Z,15.78
2023-03-30T05:07:41.276Z,15.79
2023-03-30T05:10:27.795Z,15.71
2023-03-30T05:13:19.171Z,15.71
2023-03-30T05:16:07.524Z,15.77
2023-03-30T05:18:52.546Z,15.64
2023-03-30T05:21:44.887Z,15.46
2023-03-30T05:24:14.132Z,15.47
2023-03-30T05:26:55.506Z,15.44
2023-03-30T05:29:23.724Z,15.51
2023-03-30T05:32:10.506Z,15.41
2023-03-30T05:34:48.073Z,15.31
2023-03-30T05:37:34.103Z,15.21
2023-03-30T05:40:42.447Z,15.24
2023-03-30T05:43:28.364Z,15.23
2023-03-30T05:46:13.970Z,15.39
2023-03-30T05:48:52.323Z,15.50
2023-03-30T05:51:27.512Z,15.51
2023-03-30T05:54:31.379Z,15.64
2023-03-30T05:57:11.084Z,15.59
2023-03-30T05:59:53.974Z,15.70
2023-03-30T06:02:40.697Z,15.76
2023-03-30T06:05:15.922Z,15.80
2023-03-30T06:07:46.584Z,15.70
2023-03-30T06:10:14.641Z,15.88
2023-03-30T06:12:47.386Z,15.90
2023-03-30T06:15:36.895Z,16.12
2023-03-30T06:18:08.868Z,16.02
2023-03-30T06:20:40.839Z,16.02
2023-03-30T06:23:11.302Z,16.27
2023-03-30T06:25:40.040Z,16.28
2023-03-30T06:28:09.649Z,16.34
2023-03-30T06:30:39.555Z,16.56
2023-03-30T06:33:11.913Z,16.57
2023-03-30T06:35:47.081Z,16.52
2023-03-30T06:38:19.210Z,16.65
2023-03-30T06:40:49.678Z,16.69
2023-03-30T06:43:23.691Z,16.79
2023-03-30T06:46:09.615Z,16.96
2023-03-30T06:48:37.569Z,17.02
2023-03-30T06:51:25.685Z,16.79
2023-03-30T06:53:56.093Z,16.70
2023-03-30T06:56:24.193Z,16.69
2023-03-30T06:59:23.998Z,16.66
2023-03-30T07:02:13.989Z,16.64
2023-03-30T07:05:01.006Z,16.58
2023-03-30T07:07:58.481Z,16.29
2023-03-30T07:10:27.261Z,16.43
2023-03-30T07:12:56.892Z,16.46
2023-03-30T07:15:26.659Z,16.45
2023-03-30T07:17:54.643Z,16.23
2023-03-30T07:20:22.548Z,16.00
2023-03-30T07:23:05.226Z,16.03
2023-03-30T07:25:33.181Z,16.08
2023-03-30T07:28:06.971Z,16.15
2023-03-30T07:30:37.547Z,16.23
2023-03-30T07:33:07.622Z,16.18
2023-03-30T07:35:35.936Z,16.33
2023-03-30T07:38:07.513Z,16.31
2023-03-30T07:40:40.890Z,16.55
2023-03-30T07:43:09.538Z,16.41
2023-03-30T07:45:38.837Z,16.44
2023-03-30T07:48:09.478Z,16.45
2023-03-30T07:50:38.003Z,16.30
2023-03-30T07:53:07.063Z,16.16
2023-03-30T07:55:35.191Z,16.20
2023-03-30T07:58:10.819Z,16.41
2023-03-30T08:00:42.463Z,16.27
2023-03-30T08:03:29.191Z,16.27
2023-03-30T08:06:00.863Z,16.20
2023-03-30T08:08:35.107Z,16.25
2023-03-30T08:11:04.972Z,16.40
2023-03-30T08:13:33.381Z,16.21
2023-03-30T08:16:02.694Z,16.10
2023-03-30T08:18:31.204Z,15.76
2023-03-30T08:21:00.244Z,15.18
2023-03-30T08:23:28.766Z,14.86
2023-03-30T08:25:57.448Z,14.17
2023-03-30T08:28:26.743Z,13.99
2023-03-30T08:30:55.315Z,14.16
2023-03-30T08:33:24.842Z,13.93
2023-03-30T08:35:52.787Z,13.79
2023-03-30T08:38:21.119Z,13.68
2023-03-30T08:40:50.812Z,13.64
2023-03-30T08:43:41.499Z,13.65
2023-03-30T08:46:15.694Z,13.60
2023-03-30T08:48:48.511Z,13.63
2023-03-30T08:51:24.441Z,13.55
2023-03-30T08:53:57.411Z,13.55
2023-03-30T08:56:39.694Z,13.68
2023-03-30T08:59:23.834Z,14.17
2023-03-30T09:01:59.778Z,14.72
2023-03-30T09:04:48.262Z,15.41
2023-03-30T09:07:21.781Z,15.86
2023-03-30T09:09:51.798Z,16.10
2023-03-30T09:12:31.548Z,16.01
2023-03-30T09:15:05.447Z,16.03
2023-03-30T09:17:42.229Z,16.30
2023-03-30T09:20:20.959Z,16.40
2023-03-30T09:22:52.714Z,16.47
2023-03-30T09:25:32.435Z,16.06
2023-03-30T09:28:12.304Z,16.19
2023-03-30T09:30:43.347Z,16.30
2023-03-30T09:33:28.162Z,16.65
2023-03-30T09:36:16.042Z,16.96
2023-03-30T09:38:45.826Z,16.87
2023-03-30T09:41:31.604Z,16.96
2023-03-30T09:44:03.194Z,16.50
2023-03-30T09:46:39.141Z,16.54
2023-03-30T09:49:15.821Z,16.50
2023-03-30T09:52:04.551Z,16.33
2023-03-30T09:54:38.399Z,16.08
2023-03-30T09:57:24.082Z,16.07
2023-03-30T09:59:55.994Z,16.27
2023-03-30T10:02:28.557Z,16.22
2023-03-30T10:05:03.964Z,16.09
2023-03-30T10:07:36.572Z,16.14
2023-03-30T10:10:17.247Z,16.00
2023-03-30T10:12:50.973Z,15.72
2023-03-30T10:15:22.028Z,15.23
2023-03-30T10:17:56.338Z,14.83
2023-03-30T10:20:29.819Z,14.68
2023-03-30T10:23:05.230Z,14.64
2023-03-30T10:25:34.056Z,14.90
2023-03-30T10:28:06.341Z,14.88
2023-03-30T10:30:40.210Z,15.01
2023-03-30T10:33:11.631Z,15.10
2023-03-30T10:35:40.106Z,15.38
2023-03-30T10:38:14.310Z,15.41
2023-03-30T10:40:45.835Z,15.68
2023-03-30T10:43:19.738Z,15.63
2023-03-30T10:45:54.792Z,15.65
2023-03-30T10:48:43.731Z,15.56
2023-03-30T10:51:29.311Z,15.55
2023-03-30T10:54:08.905Z,15.47
2023-03-30T10:56:44.499Z,15.42
2023-03-30T10:59:36.636Z,15.48
2023-03-30T11:02:37.986Z,15.56
2023-03-30T11:05:16.836Z,15.91
2023-03-30T11:07:53.279Z,16.09
2023-03-30T11:10:32.979Z,16.88
2023-03-30T11:13:06.065Z,17.00
2023-03-30T11:15:43.104Z,17.01
2023-03-30T11:18:21.768Z,17.23
2023-03-30T11:21:03.872Z,17.13
2023-03-30T11:23:44.471Z,17.02
2023-03-30T11:26:22.990Z,16.81
2023-03-30T11:29:07.119Z,17.10
2023-03-30T11:32:01.765Z,16.86
2023-03-30T11:34:38.240Z,16.55
2023-03-30T11:37:24.720Z,16.40
2023-03-30T11:40:06.985Z,16.63
2023-03-30T11:42:40.700Z,16.88
2023-03-30T11:45:28.158Z,17.01
2023-03-30T11:48:21.127Z,16.83
2023-03-30T11:51:10.755Z,16.79
2023-03-30T11:53:54.721Z,17.44
2023-03-30T11:56:36.893Z,17.91
2023-03-30T11:59:17.230Z,18.50
2023-03-30T12:02:06.263Z,18.43
2023-03-30T12:04:45.459Z,17.92
2023-03-30T12:07:35.754Z,17.66
2023-03-30T12:10:14.882Z,17.69
2023-03-30T12:12:44.725Z,17.54
2023-03-30T12:15:34.780Z,17.33
2023-03-30T12:18:15.855Z,17.46
2023-03-30T12:20:52.779Z,17.43
2023-03-30T12:23:42.021Z,17.29
2023-03-30T12:26:27.233Z,17.66
2023-03-30T12:29:26.316Z,18.06
2023-03-30T12:32:20.183Z,18.22
2023-03-30T12:34:51.157Z,18.49
2023-03-30T12:37:23.188Z,18.79
2023-03-30T12:39:59.543Z,19.14
2023-03-30T12:42:39.747Z,20.07
2023-03-30T12:45:25.316Z,20.51
2023-03-30T12:48:25.279Z,20.77
2023-03-30T12:51:07.396Z,19.75
2023-03-30T12:54:08.464Z,19.85
2023-03-30T12:56:47.347Z,20.54
2023-03-30T12:59:50.899Z,20.22
2023-03-30T13:02:58.186Z,20.24
2023-03-30T13:05:37.191Z,19.72
2023-03-30T13:08:10.052Z,18.70
2023-03-30T13:10:43.089Z,17.18
2023-03-30T13:13:49.504Z,16.63
2023-03-30T13:16:48.830Z,16.01
2023-03-30T13:19:28.220Z,16.22
2023-03-30T13:22:22.227Z,16.32
2023-03-30T13:24:55.403Z,16.70
2023-03-30T13:27:31.353Z,16.38
2023-03-30T13:30:09.654Z,16.32
2023-03-30T13:33:00.906Z,16.10
2023-03-30T13:35:48.118Z,15.86
2023-03-30T13:38:41.677Z,15.68
2023-03-30T13:41:28.442Z,15.49
2023-03-30T13:44:23.056Z,15.71
2023-03-30T13:46:56.172Z,15.82
2023-03-30T13:49:46.775Z,15.84
2023-03-30T13:52:20.558Z,15.75
2023-03-30T13:54:50.403Z,15.88
2023-03-30T13:57:27.144Z,15.63
2023-03-30T14:00:21.374Z,15.65
2023-03-30T14:02:49.506Z,15.33
2023-03-30T14:05:22.361Z,14.52
2023-03-30T14:07:50.392Z,14.37
2023-03-30T14:10:21.991Z,14.04
2023-03-30T14:12:56.895Z,13.69
2023-03-30T14:15:33.876Z,13.71
2023-03-30T14:18:07.409Z,13.64
2023-03-30T14:20:50.518Z,13.93
2023-03-30T14:23:25.685Z,14.20
2023-03-30T14:25:59.881Z,14.35
2023-03-30T14:28:30.409Z,14.52
2023-03-30T14:31:04.825Z,15.29
2023-03-30T14:33:40.006Z,16.00
2023-03-30T14:36:11.906Z,16.28
2023-03-30T14:38:44.915Z,16.53
2023-03-30T14:41:20.429Z,16.88
2023-03-30T14:43:55.023Z,17.11
2023-03-30T14:46:25.587Z,17.31
2023-03-30T14:48:54.746Z,17.65
2023-03-30T14:51:35.751Z,17.41
2023-03-30T14:54:06.596Z,17.25
2023-03-30T14:56:37.773Z,17.60
2023-03-30T14:59:08.027Z,17.48
2023-03-30T15:01:36.285Z,17.54
2023-03-30T15:04:10.975Z,17.12
2023-03-30T15:06:40.457Z,17.32
2023-03-30T15:09:16.863Z,17.84
2023-03-30T15:11:52.886Z,17.84
2023-03-30T15:14:23.489Z,18.22
2023-03-30T15:16:55.953Z,18.46
2023-03-30T15:19:30.436Z,18.48
2023-03-30T15:22:04.428Z,18.23
2023-03-30T15:24:35.998Z,17.79
2023-03-30T15:27:12.350Z,17.65
2023-03-30T15:29:42.000Z,17.67
2023-03-30T15:32:17.168Z,17.83
2023-03-30T15:35:05.452Z,17.97
2023-03-30T15:37:36.049Z,18.25
2023-03-30T15:40:29.329Z,17.89
2023-03-30T15:43:20.580Z,17.96
2023-03-30T15:45:53.224Z,18.33
2023-03-30T15:48:28.046Z,18.49
2023-03-30T15:51:04.182Z,18.32
2023-03-30T15:53:41.570Z,17.92
2023-03-30T15:56:22.624Z,17.89
2023-03-30T15:58:54.265Z,17.58
2023-03-30T16:01:23.287Z,17.19
2023-03-30T16:03:59.970Z,17.18
2023-03-30T16:06:27.929Z,17.05
2023-03-30T16:08:55.795Z,16.89
2023-03-30T16:11:23.899Z,16.94
2023-03-30T16:13:56.581Z,17.11
2023-03-30T16:16:26.386Z,17.51
2023-03-30T16:18:54.605Z,17.33
2023-03-30T16:21:24.480Z,17.28
2023-03-30T16:23:53.893Z,16.97
2023-03-30T16:26:25.244Z,16.78
2023-03-30T16:28:58.189Z,17.25
2023-03-30T16:31:28.460Z,17.22
2023-03-30T16:33:56.518Z,16.88
2023-03-30T16:36:27.403Z,16.91
2023-03-30T16:38:55.254Z,16.80
2023-03-30T16:41:23.635Z,17.00
2023-03-30T16:43:52.000Z,17.18
2023-03-30T16:46:50.520Z,17.01
2023-03-30T16:49:24.567Z,16.77
2023-03-30T16:51:55.338Z,16.47
2023-03-30T16:54:32.902Z,16.26
2023-03-30T16:57:01.668Z,16.30
2023-03-30T16:59:34.600Z,16.23
2023-03-30T17:02:06.557Z,16.08
2023-03-30T17:04:36.242Z,15.80
2023-03-30T17:07:06.438Z,15.87
2023-03-30T17:09:34.277Z,15.69
2023-03-30T17:12:03.978Z,15.69
2023-03-30T17:14:35.890Z,15.68
2023-03-30T17:17:09.679Z,15.65
2023-03-30T17:19:38.508Z,15.61
2023-03-30T17:22:06.356Z,15.37
2023-03-30T17:24:34.438Z,15.13
2023-03-30T17:27:02.756Z,14.92
2023-03-30T17:29:31.819Z,14.42
2023-03-30T17:32:00.869Z,14.31
2023-03-30T17:34:49.771Z,14.12
2023-03-30T17:37:19.237Z,14.02
2023-03-30T17:39:47.109Z,13.98
2023-03-30T17:42:15.044Z,14.00
2023-03-30T17:45:01.949Z,13.69
2023-03-30T17:47:29.885Z,13.81
2023-03-30T17:49:59.707Z,13.84
2023-03-30T17:52:38.831Z,13.81
2023-03-30T17:55:08.945Z,13.86
2023-03-30T17:57:38.045Z,13.74
2023-03-30T18:00:16.487Z,13.76
2023-03-30T18:02:49.869Z,13.79
2023-03-30T18:05:25.239Z,13.86
2023-03-30T18:07:55.425Z,13.80
2023-03-30T18:10:28.290Z,13.78
2023-03-30T18:12:56.187Z,13.78
2023-03-30T18:15:35.865Z,13.83
2023-03-30T18:18:04.937Z,13.86
2023-03-30T18:20:39.706Z,13.90
2023-03-30T18:23:10.450Z,13.96
2023-03-30T18:25:38.402Z,13.78
2023-03-30T18:28:16.908Z,13.88
2023-03-30T18:30:57.223Z,13.85
2023-03-30T18:33:28.950Z,14.07
2023-03-30T18:36:05.411Z,14.12
2023-03-30T18:38:33.877Z,14.06
2023-03-30T18:41:01.841Z,14.13
2023-03-30T18:43:33.950Z,14.09
2023-03-30T18:46:02.505Z,14.11
2023-03-30T18:48:33.365Z,14.20
2023-03-30T18:51:02.782Z,14.22
2023-03-30T18:53:31.336Z,14.18
2023-03-30T18:56:06.632Z,14.23
2023-03-30T18:58:42.245Z,14.14
2023-03-30T19:01:14.328Z,14.14
2023-03-30T19:03:43.047Z,14.18
2023-03-30T19:06:19.862Z,14.12
2023-03-30T19:08:54.099Z,13.90
2023-03-30T19:11:26.730Z,13.86
2023-03-30T19:14:00.354Z,13.72
2023-03-30T19:16:32.339Z,13.66
2023-03-30T19:19:01.946Z,13.61
2023-03-30T19:21:32.880Z,13.54
2023-03-30T19:24:03.653Z,13.64
2023-03-30T19:26:35.311Z,13.52
2023-03-30T19:29:03.658Z,13.58
2023-03-30T19:31:31.552Z,13.53
2023-03-30T19:33:59.535Z,13.53
2023-03-30T19:36:27.405Z,13.64
2023-03-30T19:38:57.157Z,13.61
2023-03-30T19:41:25.011Z,13.61
2023-03-30T19:43:55.039Z,13.55
2023-03-30T19:46:23.757Z,13.61
2023-03-30T19:48:57.002Z,13.61
2023-03-30T19:51:25.236Z,13.44
2023-03-30T19:53:53.090Z,13.42
2023-03-30T19:56:26.897Z,13.33
2023-03-30T19:58:58.734Z,13.24
2023-03-30T20:01:28.353Z,13.21
2023-03-30T20:03:56.448Z,13.21
2023-03-30T20:06:24.572Z,13.28
2023-03-30T20:08:54.033Z,13.39
2023-03-30T20:11:25.969Z,13.33
2023-03-30T20:13:54.112Z,13.33
2023-03-30T20:16:28.146Z,13.34
2023-03-30T20:18:59.118Z,13.31
2023-03-30T20:21:27.137Z,13.32
2023-03-30T20:24:00.742Z,13.19
2023-03-30T20:26:30.500Z,13.26
2023-03-30T20:29:01.076Z,13.30
2023-03-30T20:31:30.087Z,13.32
2023-03-30T20:33:58.700Z,13.29
2023-03-30T20:36:32.385Z,13.22
2023-03-30T20:39:01.029Z,13.36
2023-03-30T20:41:40.618Z,13.32
2023-03-30T20:44:13.812Z,13.41
2023-03-30T20:46:45.582Z,13.40
2023-03-30T20:49:13.957Z,13.39
2023-03-30T20:51:43.256Z,13.35
2023-03-30T20:54:14.068Z,13.42
2023-03-30T20:56:44.017Z,13.40
2023-03-30T20:59:12.284Z,13.41
2023-03-30T21:01:40.880Z,13.34
2023-03-30T21:04:08.836Z,13.31
2023-03-30T21:06:37.396Z,13.34
2023-03-30T21:09:14.208Z,13.42
2023-03-30T21:11:46.193Z,13.40
2023-03-30T21:14:14.479Z,13.38
2023-03-30T21:16:45.442Z,13.34
2023-03-30T21:19:13.556Z,13.33
2023-03-30T21:21:42.790Z,13.34
2023-03-30T21:24:11.984Z,13.32
2023-03-30T21:26:40.831Z,13.30
2023-03-30T21:29:10.312Z,13.35
2023-03-30T21:31:38.185Z,13.35
2023-03-30T21:34:09.037Z,13.29
2023-03-30T21:36:37.469Z,13.22
2023-03-30T21:39:05.320Z,13.13
2023-03-30T21:41:33.228Z,13.08
2023-03-30T21:44:01.480Z,12.97
2023-03-30T21:46:33.084Z,12.88
2023-03-30T21:49:00.961Z,12.85
2023-03-30T21:51:31.546Z,12.75
2023-03-30T21:53:59.849Z,12.74
2023-03-30T21:56:31.491Z,12.75
2023-03-30T21:58:59.746Z,12.81
2023-03-30T22:01:27.979Z,12.86
2023-03-30T22:04:00.093Z,12.93
2023-03-30T22:06:32.794Z,12.96
2023-03-30T22:09:01.206Z,13.02
2023-03-30T22:11:29.712Z,13.13
2023-03-30T22:13:57.589Z,13.20
2023-03-30T22:16:36.691Z,13.17
2023-03-30T22:19:08.340Z,13.13
2023-03-30T22:21:36.806Z,13.11
2023-03-30T22:24:07.473Z,13.03
2023-03-30T22:26:37.591Z,12.96
2023-03-30T22:29:05.855Z,12.96
2023-03-30T22:31:33.918Z,12.93
2023-03-30T22:34:03.386Z,12.87
2023-03-30T22:36:33.853Z,12.86
2023-03-30T22:39:04.823Z,12.86
2023-03-30T22:41:32.687Z,12.79
2023-03-30T22:44:00.984Z,12.71
2023-03-30T22:46:30.155Z,12.72
2023-03-30T22:49:00.113Z,12.62
2023-03-30T22:51:28.086Z,12.54
2023-03-30T22:54:00.074Z,12.53
2023-03-30T22:56:29.862Z,12.46
2023-03-30T22:59:00.150Z,12.35
2023-03-30T23:01:32.675Z,12.30
2023-03-30T23:04:02.104Z,12.26
2023-03-30T23:06:31.796Z,12.23
2023-03-30T23:09:04.634Z,12.21
2023-03-30T23:11:33.325Z,12.22
2023-03-30T23:14:05.682Z,12.20
2023-03-30T23:16:35.873Z,12.19
2023-03-30T23:19:06.836Z,12.24
2023-03-30T23:21:35.827Z,12.19
2023-03-30T23:24:10.967Z,12.19
2023-03-30T23:26:38.902Z,12.17
2023-03-30T23:29:07.303Z,12.14
2023-03-30T23:31:35.781Z,12.18
2023-03-30T23:34:03.985Z,12.15
2023-03-30T23:36:32.715Z,12.19
2023-03-30T23:39:01.261Z,12.22
2023-03-30T23:41:32.927Z,12.11
2023-03-30T23:44:01.095Z,12.04
2023-03-30T23:46:30.928Z,12.12
2023-03-30T23:48:59.383Z,12.10
2023-03-30T23:51:28.188Z,12.03
2023-03-30T23:54:00.042Z,12.00
2023-03-30T23:56:32.215Z,11.99
2023-03-30T23:59:01.351Z,12.02
